This is the latest recevied weather packets stored in our database for station/object N8WJW. If no packets are shown the sender has not sent any weather packets the latest 1 day(s).
| Time | Temp. | Humidity | Pressure | Rain* | Wind** | Luminosity | Snow |
|---|---|---|---|---|---|---|---|
| 1777983238 | 16.11° C | 74% | 1006.6 hPa | 0 mm | 1.34 m/s, 226° | 48 W/m² | - |
| 1777982933 | 16.11° C | 74% | 1006.5 hPa | 0 mm | 1.79 m/s, 195° | 48 W/m² | - |
| 1777982630 | 16.11° C | 74% | 1006.6 hPa | 0 mm | 2.24 m/s, 210° | 51 W/m² | - |
| 1777982328 | 16.67° C | 73% | 1006.7 hPa | 0 mm | 1.79 m/s, 150° | 38 W/m² | - |
| 1777982026 | 16.67° C | 73% | 1006.8 hPa | 0 mm | 0.45 m/s, 152° | 27 W/m² | - |
| 1777981724 | 16.67° C | 72% | 1006.6 hPa | 0 mm | 1.34 m/s, 214° | 26 W/m² | - |
| 1777981420 | 16.67° C | 70% | 1006.7 hPa | 0 mm | 1.34 m/s, 203° | 21 W/m² | - |
| 1777981116 | 17.22° C | 68% | 1006.5 hPa | 0 mm | 1.79 m/s, 209° | 22 W/m² | - |
| 1777980813 | 17.22° C | 69% | 1006.5 hPa | 0 mm | 2.24 m/s, 189° | 10 W/m² | - |
| 1777980509 | 17.22° C | 67% | 1006.5 hPa | 0 mm | 2.24 m/s, 194° | 9 W/m² | - |
| 1777980206 | 17.22° C | 69% | 1006.4 hPa | 0 mm | 2.24 m/s, 165° | 19 W/m² | - |
| 1777979902 | 17.22° C | 70% | 1006.4 hPa | 0 mm | 1.34 m/s, 241° | 25 W/m² | - |
| 1777979598 | 17.22° C | 69% | 1006.3 hPa | 0 mm | 2.68 m/s, 201° | 24 W/m² | - |
| 1777979294 | 17.78° C | 68% | 1006.2 hPa | 0 mm | 3.13 m/s, 205° | 16 W/m² | - |
| 1777978991 | 17.78° C | 68% | 1006.1 hPa | 0 mm | 2.68 m/s, 191° | 18 W/m² | - |
| 1777978688 | 17.78° C | 68% | 1006.1 hPa | 0 mm | 2.24 m/s, 163° | 16 W/m² | - |
| 1777978383 | 17.78° C | 68% | 1006 hPa | 0 mm | 2.24 m/s, 217° | 13 W/m² | - |
| 1777978080 | 17.78° C | 67% | 1006.1 hPa | 0 mm | 1.34 m/s, 215° | 9 W/m² | - |
| 1777977778 | 17.78° C | 67% | 1006 hPa | 0 mm | 1.34 m/s, 209° | 5 W/m² | - |
| 1777977474 | 17.78° C | 68% | 1005.8 hPa | 0 mm | 1.79 m/s, 175° | 5 W/m² | - |
| 1777977172 | 17.78° C | 67% | 1005.7 hPa | 0 mm | 2.68 m/s, 191° | 4 W/m² | - |
| 1777976869 | 17.78° C | 67% | 1005.7 hPa | 0 mm | 0.89 m/s, 183° | 3 W/m² | - |
| 1777976567 | 17.78° C | 67% | 1005.5 hPa | 0 mm | 4.47 m/s, 260° | 2 W/m² | - |
| 1777976266 | 17.78° C | 66% | 1005.5 hPa | 0 mm | 3.13 m/s, 201° | 1 W/m² | - |
| 1777975961 | 17.78° C | 67% | 1005.3 hPa | 0 mm | 2.24 m/s, 190° | 1 W/m² | - |
* Rain latest hour (hover to see other rain measurements)
** Current wind speed in m/s (hover to see current wind gust speed)